Latest Weather Observations for Scottsdale

IDT60801

Issued at 2:31 pm EDT Tuesday 23 December 2014 (issued every 30 minutes, with the page automatically refreshed every 10 minutes)

About weather observations | Map of weather stations | Latest weather observations for TAS | Other Formats
Station Details ID: 091219 Name: SCOTTSDALE (WEST MINSTONE ROAD) Lat: -41.17 Lon: 147.49 Height: 197.5 m
Data from the previous 72 hours. | See also: Recent months at Scottsdale
Date/Time
EDT
Temp
°C
App
Temp
°C
Dew
Point
Rel
Hum
%
Delta-T
°C
Wind Press
QNH
hPa
Press
MSL
hPa
Rain
since 9 am
mm
Dir
 
Spd
km/h
Gust
km/h
Spd
kts
Gust
kts
23/02:30pm 18.2 18.6 17.2 94 0.6 NNW 11 15 6 8 1005.4 - 4.4
23/02:00pm 17.8 18.2 17.3 97 0.3 N 11 15 6 8 1005.9 - 4.4
23/01:30pm 17.2 17.4 16.7 97 0.3 NNW 11 15 6 8 1006.0 - 4.2
23/01:00pm 17.4 17.3 16.9 97 0.3 NNW 13 19 7 10 1006.3 - 3.8
23/12:30pm 17.5 17.0 16.8 96 0.4 N 15 19 8 10 1006.5 - 1.0
23/12:00pm 18.1 18.8 17.1 94 0.6 N 9 11 5 6 1006.4 1006.2 0.4
23/11:30am 17.7 17.2 16.9 95 0.5 N 15 20 8 11 1006.6 - 0.4
23/11:00am 18.1 16.0 17.1 94 0.6 N 24 33 13 18 1006.7 - 0.2
23/10:30am 19.4 19.2 17.6 89 1.1 N 15 20 8 11 1006.8 - 0.0
23/10:00am 19.6 20.9 17.5 88 1.3 NNE 7 9 4 5 1006.9 - 0.0
23/09:30am 19.2 20.7 17.6 90 1.0 NNE 6 7 3 4 1007.1 - 0.0
23/09:00am 19.3 20.1 17.2 88 1.3 N 9 13 5 7 1007.5 1007.2 0.0
23/08:30am 18.9 19.2 16.1 84 1.7 WNW 9 15 5 8 1007.0 - 0.0
23/08:00am 18.9 20.4 15.7 82 1.9 S 2 9 1 5 1007.2 - 0.0
23/07:30am 18.7 19.4 16.0 84 1.6 ESE 7 9 4 5 1007.0 - 0.0
23/07:00am 18.3 18.6 15.1 81 1.9 ESE 7 9 4 5 1007.1 - 0.0
23/06:30am 17.3 17.2 13.8 80 2.0 SE 7 11 4 6 1007.2 - 0.0
23/06:00am 16.7 15.8 12.6 77 2.3 SSW 9 13 5 7 1006.8 1006.6 0.0
23/05:30am 16.1 16.0 13.3 83 1.6 N 6 9 3 5 1007.0 - 0.0
23/05:00am 16.3 15.8 12.7 79 2.0 SSE 7 11 4 6 1006.4 - 0.0
23/04:30am 17.1 15.4 12.3 73 2.7 S 13 15 7 8 1005.8 - 0.0
23/04:00am 15.6 16.4 12.5 82 1.7 CALM 0 6 0 3 1006.3 - 0.0
23/03:30am 16.3 14.6 12.5 78 2.1 SSE 13 17 7 9 1006.1 - 0.0
23/03:00am 16.7 14.7 12.8 78 2.2 SSE 15 19 8 10 1006.8 1006.6 0.0
23/02:30am 17.0 16.5 12.7 76 2.4 SE 7 9 4 5 1008.2 - 0.0
23/02:00am 17.0 18.0 13.3 79 2.1 CALM 0 0 0 0 1008.7 - 0.0
23/01:30am 17.5 16.6 12.5 72 2.8 S 9 15 5 8 1008.8 - 0.0
23/01:00am 17.9 16.8 13.2 74 2.7 E 11 17 6 9 1009.5 - 0.0
23/12:30am 17.7 16.8 12.5 71 2.9 ENE 9 15 5 8 1009.8 - 0.0
23/12:00am 18.0 15.9 11.3 65 3.7 N 13 17 7 9 1010.2 1010.0 0.0
 
Date/Time
EDT
Temp
°C
App
Temp
°C
Dew
Point
Rel
Hum
%
Delta-T
°C
Wind Press
QNH
hPa
Press
MSL
hPa
Rain
since 9 am
mm
Dir
 
Spd
km/h
Gust
km/h
Spd
kts
Gust
kts
22/11:30pm 19.4 18.2 10.4 56 4.9 SSE 7 11 4 6 1009.9 - 0.0
22/11:00pm 19.3 18.3 12.2 63 4.0 SW 9 13 5 7 1010.5 - 0.0
22/10:30pm 20.4 16.8 9.7 50 5.8 ESE 19 28 10 15 1010.8 - 0.0
22/10:00pm 19.3 15.6 11.6 61 4.3 E 22 33 12 18 1011.1 - 0.0
22/09:30pm 18.9 16.0 12.9 68 3.4 E 20 26 11 14 1011.2 - 0.0
22/09:00pm 18.2 15.8 13.9 76 2.5 ENE 19 26 10 14 1011.1 1010.9 0.0
22/08:30pm 18.4 16.9 14.3 77 2.4 ENE 15 19 8 10 1011.1 - 0.0
22/08:00pm 18.9 16.1 14.3 74 2.7 ENE 22 30 12 16 1011.3 - 0.0
22/07:30pm 20.3 18.2 14.7 70 3.3 NE 19 26 10 14 1011.0 - 0.0
22/07:00pm 21.6 20.3 14.9 65 4.0 NE 15 17 8 9 1011.1 - 0.0
22/06:30pm 22.8 22.1 14.4 59 5.0 E 11 17 6 9 1011.4 - 0.0
22/06:00pm 23.7 23.7 13.5 52 6.0 ESE 6 9 3 5 1011.7 1011.5 0.0
22/05:30pm 22.3 23.3 14.4 61 4.7 N 2 6 1 3 1012.0 - 0.0
22/05:00pm 22.1 22.4 14.5 62 4.5 NW 6 9 3 5 1012.8 - 0.0
22/04:30pm 22.0 22.2 14.6 63 4.4 NW 7 11 4 6 1013.2 - 0.0
22/04:00pm 22.2 21.6 13.6 58 5.0 NW 9 13 5 7 1013.6 - 0.0
22/03:30pm 22.8 23.0 13.0 54 5.7 WNW 4 7 2 4 1013.5 - 0.0
22/03:00pm 22.9 22.7 12.9 53 5.8 NNW 6 9 3 5 1013.9 1013.7 0.0
22/02:30pm 23.6 22.1 13.1 51 6.1 NW 13 17 7 9 1014.4 - 0.0
22/02:00pm 23.4 22.5 12.5 50 6.3 NW 9 15 5 8 1014.7 - 0.0
22/01:30pm 22.7 21.6 13.2 55 5.5 NW 11 15 6 8 1015.0 - 0.0
22/01:00pm 22.0 20.9 13.0 56 5.2 NW 11 17 6 9 1015.1 - 0.0
22/12:30pm 23.1 21.6 11.8 49 6.4 NW 11 19 6 10 1014.9 - 0.0
22/12:00pm 23.8 22.2 10.1 42 7.6 NW 9 17 5 9 1014.9 1014.7 0.0
22/11:30am 22.6 20.6 10.0 44 6.9 NE 11 17 6 9 1014.9 - 0.0
22/11:00am 22.0 20.3 9.7 45 6.7 E 9 17 5 9 1014.9 - 0.0
22/10:30am 21.5 20.0 9.0 44 6.7 NE 7 11 4 6 1015.1 - 0.0
22/10:00am 20.5 19.3 10.2 51 5.6 S 7 13 4 7 1015.2 - 0.0
22/09:30am 20.1 18.6 10.6 54 5.2 E 9 15 5 8 1015.3 - 0.0
22/09:00am 19.3 17.8 10.7 57 4.7 ESE 9 15 5 8 1015.4 1015.2 0.0
22/08:30am 18.4 16.5 10.5 60 4.3 ESE 11 15 6 8 1015.4 - 0.0
22/08:00am 16.8 15.6 11.7 72 2.8 SSE 9 11 5 6 1015.1 - 0.0
22/07:30am 15.4 14.2 11.7 78 2.0 S 9 11 5 6 1014.8 - 0.0
22/07:00am 13.8 12.5 11.4 85 1.3 SSE 9 11 5 6 1014.7 - 0.0
22/06:30am 12.2 10.7 10.5 89 0.9 SSE 9 13 5 7 1014.5 - 0.0
22/06:00am 10.3 7.7 9.3 93 0.5 SSE 13 15 7 8 1014.4 1014.2 0.0
22/05:30am 9.8 7.6 9.2 96 0.3 SSE 11 13 6 7 1014.2 - 0.0
22/05:00am 10.2 8.1 9.6 96 0.3 S 11 13 6 7 1014.1 - 0.0
22/04:30am 10.5 8.8 9.7 95 0.4 S 9 11 5 6 1013.9 - 0.0
22/04:00am 11.3 10.2 10.5 95 0.4 SSE 7 9 4 5 1014.1 - 0.0
22/03:30am 12.7 11.5 11.6 93 0.6 SE 9 11 5 6 1014.1 - 0.0
22/03:00am 12.8 11.6 11.7 93 0.6 SE 9 15 5 8 1014.0 1013.8 0.0
22/02:30am 12.6 10.7 11.7 94 0.5 SSE 13 13 7 7 1014.2 - 0.0
22/02:00am 12.8 11.6 11.7 93 0.6 SSE 9 13 5 7 1014.2 - 0.0
22/01:30am 12.4 11.3 11.8 96 0.3 SE 9 11 5 6 1014.3 - 0.0
22/01:00am 12.2 11.9 11.6 96 0.3 ESE 4 7 2 4 1014.5 - 0.0
22/12:30am 11.8 11.8 11.0 95 0.4 WNW 2 7 1 4 1014.5 - 0.0
22/12:00am 10.3 10.4 10.3 100 0.0 CALM 0 0 0 0 1014.4 1014.2 0.0
 
Date/Time
EDT
Temp
°C
App
Temp
°C
Dew
Point
Rel
Hum
%
Delta-T
°C
Wind Press
QNH
hPa
Press
MSL
hPa
Rain
since 9 am
mm
Dir
 
Spd
km/h
Gust
km/h
Spd
kts
Gust
kts
21/11:30pm 10.3 10.3 9.9 97 0.2 CALM 0 0 0 0 1014.3 - 0.0
21/11:00pm 11.5 10.6 10.7 95 0.4 NNW 6 7 3 4 1014.4 - 0.0
21/10:30pm 11.5 10.6 10.7 95 0.4 NNE 6 7 3 4 1014.3 - 0.0
21/10:00pm 12.8 13.3 11.7 93 0.6 CALM 0 0 0 0 1014.2 - 0.0
21/09:30pm 13.1 11.9 11.6 91 0.8 NW 9 11 5 6 1013.7 - 0.0
21/09:00pm 13.4 12.9 11.9 91 0.8 NNW 6 9 3 5 1013.2 1013.0 0.0
21/08:30pm 14.2 13.2 12.2 88 1.1 NNW 9 15 5 8 1012.9 - 0.0
21/08:00pm 15.2 13.0 12.1 82 1.7 NW 15 20 8 11 1012.9 - 0.0
21/07:30pm 15.2 13.3 11.9 81 1.8 NW 13 19 7 10 1012.8 - 0.0
21/07:00pm 15.5 13.0 12.2 81 1.8 NW 17 24 9 13 1012.7 - 0.0
21/06:30pm 16.1 13.5 12.1 77 2.2 NW 17 22 9 12 1012.5 - 0.0
21/06:00pm 16.8 13.8 12.1 74 2.6 NW 19 26 10 14 1012.7 1012.4 0.0
21/05:30pm 18.6 16.1 12.2 66 3.6 NW 17 26 9 14 1012.8 - 0.0
21/05:00pm 18.6 15.4 11.3 62 4.0 NW 19 28 10 15 1012.7 - 0.0
21/04:30pm 20.0 17.3 11.8 59 4.6 WNW 17 26 9 14 1012.7 - 0.0
21/04:00pm 19.8 17.3 10.9 56 4.9 WNW 15 20 8 11 1013.1 - 0.0
21/03:30pm 19.6 16.9 10.4 55 5.0 NW 15 24 8 13 1013.3 - 0.0
21/03:00pm 18.8 15.2 9.9 56 4.8 N 19 24 10 13 1013.4 1013.2 0.0
21/02:30pm 19.9 15.8 8.5 47 6.0 NNW 20 28 11 15 1013.5 - 0.0
21/02:00pm 20.2 16.6 9.8 51 5.6 NW 19 32 10 17 1014.1 - 0.0
21/01:30pm 20.0 15.5 8.6 47 6.0 N 22 32 12 17 1014.1 - 0.0
21/01:00pm 20.3 16.9 10.4 53 5.4 NNW 19 28 10 15 1014.3 - 0.0
21/12:30pm 20.0 17.6 11.4 57 4.8 N 15 26 8 14 1014.4 - 0.0
21/12:00pm 19.7 17.4 11.6 59 4.5 NNW 15 22 8 12 1014.8 1014.6 0.0
21/11:30am 19.7 17.6 11.0 57 4.8 NNW 13 24 7 13 1014.7 - 0.0
21/11:00am 19.8 17.7 11.1 57 4.8 NW 13 19 7 10 1014.7 - 0.0
21/10:30am 18.6 16.6 10.3 58 4.5 NNW 11 20 6 11 1015.0 - 0.0
21/10:00am 18.1 16.8 9.9 58 4.4 W 7 15 4 8 1015.0 - 0.0
21/09:30am 18.2 17.0 10.2 59 4.3 NW 7 15 4 8 1015.1 - 0.0
21/09:00am 17.0 15.9 10.7 66 3.4 N 7 11 4 6 1015.1 1014.9 0.0
21/08:30am 16.7 15.9 11.0 69 3.1 NE 6 13 3 7 1015.1 - 0.0
21/08:00am 16.1 15.3 11.1 72 2.7 E 6 11 3 6 1015.0 - 0.0
21/07:30am 15.5 14.1 11.0 74 2.4 ESE 9 11 5 6 1015.0 - 0.0
21/07:00am 14.1 12.9 11.5 84 1.4 SSE 9 11 5 6 1015.3 - 0.0
21/06:30am 13.1 11.8 11.2 88 1.0 S 9 11 5 6 1015.5 - 0.0
21/06:00am 11.1 9.4 9.9 92 0.6 SSE 9 11 5 6 1014.9 1014.7 0.0
21/05:30am 11.0 10.6 9.8 92 0.6 WSW 2 6 1 3 1014.7 - 0.0
21/05:00am 12.5 11.5 10.4 87 1.1 WNW 6 7 3 4 1014.4 - 0.0
21/04:30am 13.0 12.1 10.5 85 1.3 ENE 6 7 3 4 1014.2 - 0.0
21/04:00am 13.4 12.3 10.6 83 1.5 ENE 7 9 4 5 1014.3 - 0.0
21/03:30am 13.7 11.8 10.5 81 1.7 E 11 15 6 8 1014.2 - 0.0
21/03:00am 13.8 11.5 10.4 80 1.8 E 13 17 7 9 1014.5 1014.3 0.0
21/02:30am 13.8 12.0 10.8 82 1.6 E 11 15 6 8 1014.6 - 0.0
21/02:00am 13.9 11.7 10.7 81 1.7 E 13 15 7 8 1014.9 - 0.0
21/01:30am 13.6 11.8 11.0 84 1.4 E 11 13 6 7 1015.2 - 0.0
21/01:00am 13.1 11.8 11.2 88 1.0 NNE 9 11 5 6 1015.5 - 0.0
21/12:30am 13.0 12.0 11.1 88 1.0 ENE 7 9 4 5 1015.4 - 0.0
21/12:00am 12.9 11.1 11.0 88 1.0 ENE 11 13 6 7 1015.3 1015.1 0.0
 
Date/Time
EDT
Temp
°C
App
Temp
°C
Dew
Point
Rel
Hum
%
Delta-T
°C
Wind Press
QNH
hPa
Press
MSL
hPa
Rain
since 9 am
mm
Dir
 
Spd
km/h
Gust
km/h
Spd
kts
Gust
kts
20/11:30pm 13.3 11.2 11.2 87 1.1 ENE 13 17 7 9 1015.5 - 0.0
20/11:00pm 12.4 10.5 10.5 88 1.0 NE 11 15 6 8 1015.3 - 0.0
20/10:30pm 13.9 12.6 11.3 84 1.4 ENE 9 11 5 6 1015.1 - 0.0
20/10:00pm 14.7 11.9 11.2 79 1.9 ENE 17 20 9 11 1014.8 - 0.0
20/09:30pm 14.9 11.7 11.2 78 2.0 ENE 19 26 10 14 1014.6 - 0.0
20/09:00pm 15.5 12.2 10.8 73 2.5 ENE 19 22 10 12 1014.0 1013.8 0.0
20/08:30pm 16.5 13.2 9.5 63 3.7 NNE 17 19 9 10 1013.6 - 0.0
20/08:00pm 18.6 15.8 8.7 52 5.2 NW 13 20 7 11 1013.0 - 0.0
20/07:30pm 19.5 16.7 8.5 49 5.8 NW 13 20 7 11 1012.4 - 0.0
20/07:00pm 20.3 16.6 8.1 45 6.4 NW 17 28 9 15 1012.0 - 0.0
20/06:30pm 21.1 16.5 8.0 43 6.9 WNW 22 33 12 18 1011.6 - 0.0
20/06:00pm 21.1 16.8 7.7 42 7.0 WNW 20 35 11 19 1011.3 1011.1 0.0
20/05:30pm 21.2 16.5 9.3 46 6.4 NW 24 39 13 21 1011.2 - 0.0
20/05:00pm 21.7 17.4 9.3 45 6.7 NW 22 37 12 20 1011.3 - 0.0
20/04:30pm 21.1 15.9 8.7 45 6.6 NW 26 39 14 21 1011.3 - 0.0
20/04:00pm 23.1 19.6 8.8 40 7.7 WNW 17 28 9 15 1011.4 - 0.0
20/03:30pm 21.8 18.5 9.4 45 6.7 WNW 17 28 9 15 1011.6 - 0.0
20/03:00pm 21.5 17.7 9.7 47 6.4 WNW 20 33 11 18 1011.8 1011.6 0.0

Other Formats:

Comma delimited format used in spreadsheet applications
http://www.bom.gov.au/fwo/IDT60801/IDT60801.94972.axf

JavaScript Object Notation format (JSON) in row-major order
http://www.bom.gov.au/fwo/IDT60801/IDT60801.94972.json